Time;durP1;ratioP1;P1;durP2;ratioP2;P2;SDS_P1;SDS_P2;PMS_P1;PMS_P2;Temp;Humidity;BMP_temperature;BMP_pressure;BME280_temperature;BME280_humidity;BME280_pressure;Samples;Min_cycle;Max_cycle;Signal;HPM_P1;HPM_P2
2023/06/05 00:01:18;;;;;;;8.03;7.27;;;10.90;99.90;;;;;;5044017;28;21069;-76
2023/06/05 00:03:44;;;;;;;8.37;7.07;;;10.90;99.90;;;;;;5043316;28;20432;-76
2023/06/05 00:06:10;;;;;;;7.77;6.33;;;10.90;99.90;;;;;;5026582;28;20490;-75
2023/06/05 00:08:36;;;;;;;8.45;6.53;;;11.00;99.90;;;;;;5045620;28;20425;-75
2023/06/05 00:11:02;;;;;;;8.30;7.22;;;11.00;99.90;;;;;;5028559;28;20507;-75
2023/06/05 00:13:27;;;;;;;9.10;6.07;;;11.00;99.90;;;;;;5046317;28;20452;-75
2023/06/05 00:15:53;;;;;;;7.10;6.40;;;11.00;99.90;;;;;;5032226;28;20437;-75
2023/06/05 00:18:19;;;;;;;7.75;7.05;;;10.80;99.90;;;;;;5045972;28;20479;-75
2023/06/05 00:20:45;;;;;;;10.32;7.60;;;11.00;99.90;;;;;;5046480;28;20398;-75
2023/06/05 00:23:11;;;;;;;8.15;7.18;;;11.00;99.90;;;;;;5029063;28;20437;-74
2023/06/05 00:25:37;;;;;;;8.27;7.47;;;11.10;99.90;;;;;;5046581;28;20467;-75
2023/06/05 00:28:02;;;;;;;7.77;6.87;;;10.70;99.90;;;;;;5045383;28;20429;-75
2023/06/05 00:30:28;;;;;;;7.40;6.50;;;10.90;99.90;;;;;;5046719;28;20410;-74
2023/06/05 00:32:54;;;;;;;7.67;6.80;;;10.80;99.90;;;;;;5043768;28;20424;-75
2023/06/05 00:35:20;;;;;;;7.47;6.83;;;10.80;99.90;;;;;;5035801;28;20421;-75
2023/06/05 00:37:46;;;;;;;8.50;6.77;;;10.60;99.90;;;;;;5044930;28;20947;-75
2023/06/05 00:40:12;;;;;;;10.73;6.75;;;10.70;99.90;;;;;;5046694;28;20436;-75
2023/06/05 00:42:38;;;;;;;9.63;7.00;;;10.60;99.90;;;;;;5027556;28;20437;-75
2023/06/05 00:45:04;;;;;;;10.83;7.97;;;10.60;99.90;;;;;;5034364;28;20421;-76
2023/06/05 00:47:31;;;;;;;7.85;7.05;;;10.60;99.90;;;;;;5045406;28;20520;-75
2023/06/05 00:49:57;;;;;;;8.13;7.32;;;10.70;99.90;;;;;;5025573;28;20462;-75
2023/06/05 00:52:23;;;;;;;7.82;6.80;;;10.70;99.90;;;;;;5044965;28;20469;-75
2023/06/05 00:54:49;;;;;;;8.50;7.03;;;10.80;99.90;;;;;;5045220;28;20772;-76
2023/06/05 00:57:15;;;;;;;9.83;8.30;;;10.70;99.90;;;;;;5030943;28;20441;-75
2023/06/05 00:59:44;;;;;;;8.47;7.57;;;10.80;99.90;;;;;;5035180;28;20409;-75
2023/06/05 01:02:12;;;;;;;8.23;7.43;;;10.70;99.90;;;;;;5043717;28;20808;-75
2023/06/05 01:04:43;;;;;;;7.82;7.00;;;11.00;99.90;;;;;;5024474;28;20433;-76
2023/06/05 01:07:13;;;;;;;8.32;7.45;;;11.00;99.90;;;;;;5036634;28;20794;-75
2023/06/05 01:09:40;;;;;;;7.90;7.20;;;10.90;99.90;;;;;;5044098;28;20429;-74
2023/06/05 01:12:26;;;;;;;8.07;7.28;;;11.00;99.90;;;;;;5043676;28;20431;-75
2023/06/05 01:14:58;;;;;;;8.65;7.20;;;11.10;99.90;;;;;;5117828;22;20435;-75
2023/06/05 01:17:28;;;;;;;9.77;7.38;;;11.00;99.90;;;;;;5062390;28;20430;-75
2023/06/05 01:19:55;;;;;;;10.82;7.70;;;10.90;99.90;;;;;;5058616;28;20423;-75
2023/06/05 01:22:21;;;;;;;9.40;7.60;;;11.10;99.90;;;;;;5063646;28;20846;-76
2023/06/05 01:24:47;;;;;;;10.47;7.63;;;11.30;99.90;;;;;;5064381;28;20512;-76
2023/06/05 01:27:28;;;;;;;8.02;7.28;;;11.10;99.90;;;;;;5062975;28;20423;-75
2023/06/05 01:30:44;;;;;;;8.55;7.20;;;11.10;99.90;;;;;;5063018;28;20411;-74
2023/06/05 01:33:13;;;;;;;8.60;6.50;;;11.30;99.90;;;;;;5060412;28;20434;-74
2023/06/05 01:35:40;;;;;;;8.02;6.80;;;11.20;99.90;;;;;;5061911;28;20427;-75
2023/06/05 01:38:09;;;;;;;9.38;7.05;;;11.20;99.90;;;;;;5061552;28;20628;-75
2023/06/05 01:40:36;;;;;;;7.20;6.45;;;11.10;99.90;;;;;;5064369;28;20416;-75
2023/06/05 01:43:03;;;;;;;7.18;6.20;;;11.10;99.90;;;;;;5063690;28;20428;-75
2023/06/05 01:45:30;;;;;;;8.48;6.43;;;11.20;99.90;;;;;;5061593;28;20418;-75
2023/06/05 01:47:56;;;;;;;7.40;6.60;;;11.20;99.90;;;;;;5064291;28;20785;-76
2023/06/05 01:50:22;;;;;;;7.00;5.70;;;11.20;99.90;;;;;;5062997;28;20446;-76
2023/06/05 01:52:49;;;;;;;6.45;5.85;;;11.20;99.90;;;;;;5055610;28;20445;-75
2023/06/05 01:55:23;;;;;;;7.68;5.65;;;11.40;99.90;;;;;;5059577;28;20572;-75
2023/06/05 01:57:50;;;;;;;9.13;5.68;;;11.50;99.90;;;;;;5058732;28;20433;-75
2023/06/05 02:00:17;;;;;;;6.30;5.28;;;11.30;99.90;;;;;;5060713;28;20416;-76
2023/06/05 02:02:45;;;;;;;7.85;5.70;;;11.40;99.90;;;;;;5061920;28;20457;-75
2023/06/05 02:05:12;;;;;;;11.40;5.93;;;11.50;99.90;;;;;;5062581;28;20427;-75
2023/06/05 02:07:43;;;;;;;7.13;4.85;;;11.40;99.90;;;;;;5063231;28;20419;-75
2023/06/05 02:10:09;;;;;;;6.43;5.30;;;11.50;99.90;;;;;;5064876;28;20431;-75
2023/06/05 02:12:41;;;;;;;5.40;4.88;;;11.40;99.90;;;;;;5064785;28;20411;-75
2023/06/05 02:15:08;;;;;;;5.20;4.70;;;11.30;99.90;;;;;;5063535;28;20978;-75
2023/06/05 02:17:34;;;;;;;8.25;4.97;;;11.40;99.90;;;;;;5063536;28;20471;-75
2023/06/05 02:20:01;;;;;;;5.35;4.85;;;11.50;99.90;;;;;;5063668;28;20532;-75
2023/06/05 02:22:26;;;;;;;5.53;5.00;;;11.50;99.90;;;;;;5065015;28;20436;-75
2023/06/05 02:24:53;;;;;;;5.73;4.90;;;11.60;99.90;;;;;;5065251;28;20751;-75
2023/06/05 02:27:19;;;;;;;6.13;5.13;;;11.60;99.90;;;;;;5064866;28;20424;-75
2023/06/05 02:29:44;;;;;;;5.93;5.32;;;11.60;99.90;;;;;;5064714;28;20419;-75
2023/06/05 02:32:11;;;;;;;7.38;5.30;;;11.60;99.90;;;;;;5062964;28;20464;-74
2023/06/05 02:34:37;;;;;;;5.80;5.20;;;11.60;99.90;;;;;;5059365;28;20451;-75
2023/06/05 02:37:03;;;;;;;6.28;5.55;;;11.70;99.90;;;;;;5066743;28;20431;-74
2023/06/05 02:39:31;;;;;;;8.83;6.30;;;11.70;99.90;;;;;;5068502;28;20430;-75
2023/06/05 02:41:57;;;;;;;8.07;6.25;;;11.70;99.90;;;;;;5068333;28;20427;-76
2023/06/05 02:44:23;;;;;;;7.45;6.55;;;11.60;99.90;;;;;;5067315;28;20415;-76
2023/06/05 02:46:48;;;;;;;9.50;6.85;;;11.50;99.90;;;;;;5067244;28;20424;-76
2023/06/05 02:49:14;;;;;;;6.27;5.63;;;11.30;99.90;;;;;;5069315;28;20419;-74
2023/06/05 02:51:40;;;;;;;7.53;6.70;;;11.30;99.90;;;;;;5065348;28;20428;-75
2023/06/05 02:54:06;;;;;;;8.77;6.57;;;11.60;99.90;;;;;;5068611;28;20411;-74
2023/06/05 02:56:32;;;;;;;8.47;6.90;;;11.40;99.90;;;;;;5068204;28;20459;-75
2023/06/05 02:58:58;;;;;;;7.95;6.88;;;11.30;99.90;;;;;;5050343;28;20808;-75
2023/06/05 03:01:25;;;;;;;8.07;7.27;;;11.30;99.90;;;;;;5063611;28;20457;-74
2023/06/05 03:03:52;;;;;;;7.85;6.90;;;11.40;99.90;;;;;;5067378;28;20438;-75
2023/06/05 03:06:18;;;;;;;8.20;7.40;;;11.30;99.90;;;;;;5065297;28;20488;-77
2023/06/05 03:08:44;;;;;;;7.88;7.07;;;11.40;99.90;;;;;;5069190;28;20428;-75
2023/06/05 03:11:10;;;;;;;8.48;7.57;;;11.40;99.90;;;;;;5067458;28;20420;-75
2023/06/05 03:13:36;;;;;;;10.30;7.95;;;11.30;99.90;;;;;;5065520;28;20759;-75
2023/06/05 03:16:02;;;;;;;8.45;7.32;;;11.40;99.90;;;;;;5063357;28;20424;-74
2023/06/05 03:18:29;;;;;;;8.25;7.47;;;11.30;99.90;;;;;;5059607;28;20531;-74
2023/06/05 03:20:55;;;;;;;8.02;7.32;;;11.30;99.90;;;;;;5065820;28;20431;-73
2023/06/05 03:23:27;;;;;;;7.45;6.57;;;11.40;99.90;;;;;;5066566;28;20560;-74
2023/06/05 03:25:54;;;;;;;8.50;7.25;;;11.50;99.90;;;;;;5054663;28;20824;-75
2023/06/05 03:28:21;;;;;;;6.97;6.28;;;11.40;99.90;;;;;;5064983;28;20475;-75
2023/06/05 03:30:47;;;;;;;7.32;6.47;;;11.40;99.90;;;;;;5063642;28;20415;-75
2023/06/05 03:33:14;;;;;;;8.43;5.53;;;11.50;99.90;;;;;;5067322;28;20528;-75
2023/06/05 03:35:42;;;;;;;6.38;5.78;;;11.50;99.90;;;;;;5061609;28;20490;-74
2023/06/05 03:38:09;;;;;;;6.25;5.05;;;11.30;99.90;;;;;;5067535;28;20437;-75
2023/06/05 03:40:35;;;;;;;6.13;4.50;;;11.50;99.90;;;;;;5066870;28;20969;-75
2023/06/05 03:43:01;;;;;;;6.22;4.40;;;11.50;99.90;;;;;;5065069;28;20435;-76
2023/06/05 03:45:27;;;;;;;3.90;3.60;;;11.60;99.90;;;;;;5067260;28;20422;-75
2023/06/05 03:47:53;;;;;;;5.30;4.15;;;11.70;99.90;;;;;;5065940;28;20454;-75
2023/06/05 03:50:20;;;;;;;6.22;3.92;;;11.60;99.90;;;;;;5063036;28;20424;-76
2023/06/05 03:52:52;;;;;;;4.82;3.70;;;11.60;99.90;;;;;;5065181;28;20419;-75
2023/06/05 03:55:20;;;;;;;3.42;3.13;;;11.60;99.90;;;;;;5065849;28;20540;-76
2023/06/05 03:57:47;;;;;;;5.72;3.70;;;11.80;99.90;;;;;;5065082;28;20440;-74
2023/06/05 04:00:14;;;;;;;4.50;3.30;;;11.60;99.90;;;;;;5066234;28;20441;-75
2023/06/05 04:02:41;;;;;;;5.30;3.40;;;11.70;99.90;;;;;;5064755;28;20442;-76
2023/06/05 04:05:11;;;;;;;4.30;3.30;;;11.70;99.90;;;;;;5063589;28;20963;-74
2023/06/05 04:07:37;;;;;;;3.35;2.90;;;11.60;99.90;;;;;;5066881;28;20434;-74
2023/06/05 04:10:03;;;;;;;3.95;2.60;;;11.60;99.90;;;;;;5067670;28;20419;-76
2023/06/05 04:12:28;;;;;;;3.08;2.60;;;11.70;99.90;;;;;;5067283;28;20419;-75
2023/06/05 04:14:54;;;;;;;3.35;2.70;;;11.70;99.90;;;;;;5066215;28;20438;-75
2023/06/05 04:17:20;;;;;;;3.58;2.67;;;11.70;99.90;;;;;;5066637;28;20432;-77
2023/06/05 04:19:45;;;;;;;2.80;2.07;;;11.60;99.90;;;;;;5065269;28;20455;-75
2023/06/05 04:22:11;;;;;;;2.83;2.00;;;11.70;99.90;;;;;;5066308;28;20503;-75
2023/06/05 04:24:39;;;;;;;3.80;2.17;;;11.70;99.90;;;;;;5066760;28;20968;-74
2023/06/05 04:27:05;;;;;;;3.22;2.40;;;11.90;99.90;;;;;;5066461;28;20419;-75
2023/06/05 04:29:32;;;;;;;4.45;2.90;;;11.90;99.90;;;;;;5065684;28;20419;-75
2023/06/05 04:31:58;;;;;;;3.70;2.97;;;11.90;99.90;;;;;;5064971;28;20431;-76
2023/06/05 04:34:24;;;;;;;2.92;2.60;;;11.90;99.90;;;;;;5064920;28;20430;-75
2023/06/05 04:36:51;;;;;;;2.90;2.10;;;11.80;99.90;;;;;;5065381;28;20423;-75
2023/06/05 04:39:18;;;;;;;3.40;2.40;;;12.00;99.90;;;;;;5065913;28;20832;-76
2023/06/05 04:41:45;;;;;;;2.50;2.22;;;11.90;99.90;;;;;;5065994;28;20427;-76
2023/06/05 04:44:18;;;;;;;3.05;2.60;;;12.00;99.90;;;;;;5064341;28;20412;-74
2023/06/05 04:46:47;;;;;;;2.50;2.30;;;12.00;99.90;;;;;;5057042;28;20438;-75
2023/06/05 04:49:14;;;;;;;4.45;2.47;;;12.20;99.90;;;;;;5045993;28;20434;-75
2023/06/05 04:51:41;;;;;;;4.55;2.70;;;12.00;99.90;;;;;;5062511;28;20423;-75
2023/06/05 04:54:06;;;;;;;4.30;2.72;;;12.00;99.90;;;;;;5065049;28;20463;-75
2023/06/05 04:56:34;;;;;;;3.15;2.53;;;12.10;99.90;;;;;;5065152;28;20420;-75
2023/06/05 04:59:02;;;;;;;3.20;2.90;;;12.30;99.90;;;;;;5064828;28;20427;-74
2023/06/05 05:01:28;;;;;;;4.05;3.42;;;12.20;99.90;;;;;;5060201;28;20408;-75
2023/06/05 05:03:54;;;;;;;3.72;3.03;;;12.40;99.90;;;;;;5064729;28;20459;-74
2023/06/05 05:06:20;;;;;;;3.47;3.10;;;12.20;99.90;;;;;;5055717;28;20428;-75
2023/06/05 05:08:50;;;;;;;4.38;2.97;;;12.30;99.90;;;;;;5064713;28;20439;-75
2023/06/05 05:11:17;;;;;;;6.22;2.75;;;12.20;99.90;;;;;;5066506;28;20470;-74
2023/06/05 05:13:43;;;;;;;2.30;1.90;;;12.30;99.90;;;;;;5063877;28;20424;-75
2023/06/05 05:16:10;;;;;;;3.40;2.00;;;12.40;99.90;;;;;;5065680;28;20435;-75
2023/06/05 05:18:39;;;;;;;2.40;1.55;;;12.20;99.90;;;;;;5062988;28;20450;-76
2023/06/05 05:21:05;;;;;;;3.47;1.90;;;12.20;99.90;;;;;;5065071;28;20434;-74
2023/06/05 05:23:31;;;;;;;3.58;2.15;;;12.30;99.90;;;;;;5063523;28;20435;-75
2023/06/05 05:25:57;;;;;;;1.85;1.60;;;12.50;99.90;;;;;;5063656;28;20420;-76
2023/06/05 05:28:22;;;;;;;2.53;1.77;;;12.40;99.90;;;;;;5061809;28;20789;-75
2023/06/05 05:30:48;;;;;;;1.97;1.70;;;12.30;99.90;;;;;;5065285;28;20424;-76
2023/06/05 05:33:14;;;;;;;2.77;1.83;;;12.30;99.90;;;;;;5063532;28;20538;-75
2023/06/05 05:35:40;;;;;;;3.72;1.90;;;12.40;99.90;;;;;;5062489;28;20486;-75
2023/06/05 05:38:07;;;;;;;3.63;2.22;;;12.10;99.90;;;;;;5063274;28;20945;-75
2023/06/05 05:40:32;;;;;;;2.50;1.90;;;12.50;99.90;;;;;;5064462;28;20494;-75
2023/06/05 05:42:58;;;;;;;2.10;1.77;;;12.50;99.90;;;;;;5063629;28;21022;-75
2023/06/05 05:45:24;;;;;;;2.65;1.77;;;12.50;99.90;;;;;;5063872;28;20419;-74
2023/06/05 05:47:49;;;;;;;2.20;1.73;;;12.40;99.90;;;;;;5064738;28;20735;-75
2023/06/05 05:50:15;;;;;;;2.47;1.80;;;12.60;99.90;;;;;;5062256;28;20505;-75
2023/06/05 05:52:42;;;;;;;2.70;1.90;;;12.40;99.90;;;;;;5064308;28;20424;-75
2023/06/05 05:55:09;;;;;;;2.30;2.00;;;12.60;99.90;;;;;;5062571;28;20431;-75
2023/06/05 05:57:35;;;;;;;2.63;1.80;;;12.50;99.90;;;;;;5052162;28;20515;-74
2023/06/05 06:00:01;;;;;;;3.08;2.60;;;12.60;99.90;;;;;;5062120;28;20470;-75
2023/06/05 06:02:27;;;;;;;2.85;1.90;;;12.50;99.90;;;;;;5063401;28;20424;-76
2023/06/05 06:04:53;;;;;;;2.27;1.50;;;12.50;99.90;;;;;;5062345;28;20418;-75
2023/06/05 06:07:19;;;;;;;1.60;1.45;;;12.60;99.90;;;;;;5063206;28;20430;-74
2023/06/05 06:09:46;;;;;;;2.53;1.88;;;12.70;99.90;;;;;;5064646;28;20407;-75
2023/06/05 06:12:11;;;;;;;3.45;1.90;;;12.70;99.90;;;;;;5065488;28;20431;-76
2023/06/05 06:14:37;;;;;;;2.60;2.13;;;12.70;99.90;;;;;;5055217;28;21138;-76
2023/06/05 06:17:05;;;;;;;3.30;2.30;;;12.60;99.90;;;;;;5068834;28;20777;-74
2023/06/05 06:19:32;;;;;;;2.80;1.90;;;12.60;99.90;;;;;;5067268;28;20556;-76
2023/06/05 06:21:58;;;;;;;2.47;2.28;;;12.60;99.90;;;;;;5067978;28;20438;-75
2023/06/05 06:24:24;;;;;;;2.10;1.90;;;12.60;99.90;;;;;;5066849;28;20427;-75
2023/06/05 06:26:52;;;;;;;2.80;2.60;;;12.70;99.90;;;;;;5063436;28;20550;-77
2023/06/05 06:29:23;;;;;;;4.87;2.43;;;12.60;99.90;;;;;;5062947;28;20412;-75
2023/06/05 06:31:49;;;;;;;2.40;2.10;;;12.70;99.90;;;;;;5068359;28;20942;-76
2023/06/05 06:34:16;;;;;;;3.73;2.20;;;12.90;99.90;;;;;;5068243;28;20476;-75
2023/06/05 06:36:43;;;;;;;4.70;2.10;;;12.90;99.90;;;;;;5056732;28;20421;-75
2023/06/05 06:39:12;;;;;;;5.40;2.15;;;13.00;99.90;;;;;;5066230;28;20416;-76
2023/06/05 06:41:39;;;;;;;2.97;2.17;;;13.10;99.90;;;;;;5067326;28;20427;-76
2023/06/05 06:44:05;;;;;;;5.00;2.22;;;13.20;99.90;;;;;;5069787;28;20411;-75
2023/06/05 06:46:31;;;;;;;2.42;1.83;;;13.20;99.90;;;;;;5065588;28;20918;-76
2023/06/05 06:48:57;;;;;;;3.83;2.15;;;13.30;99.90;;;;;;5067396;28;20420;-76
2023/06/05 06:51:24;;;;;;;4.88;2.90;;;13.90;99.90;;;;;;5067862;28;20421;-76
2023/06/05 06:53:50;;;;;;;3.15;1.83;;;14.20;99.90;;;;;;5070077;28;20486;-76
2023/06/05 06:56:17;;;;;;;3.03;2.33;;;13.70;99.90;;;;;;5064375;28;20997;-73
2023/06/05 06:58:45;;;;;;;2.95;2.10;;;13.70;99.90;;;;;;5067623;28;20934;-80
2023/06/05 07:01:12;;;;;;;5.03;2.20;;;13.90;99.90;;;;;;5067865;28;20940;-73
2023/06/05 07:03:40;;;;;;;4.75;2.40;;;14.10;99.90;;;;;;5064638;28;20953;-72
2023/06/05 07:06:05;;;;;;;3.93;2.57;;;14.00;99.90;;;;;;5065403;28;20515;-76
2023/06/05 07:08:31;;;;;;;3.90;1.90;;;14.40;99.90;;;;;;5066317;28;20427;-74
2023/06/05 07:10:57;;;;;;;3.73;2.00;;;14.50;99.90;;;;;;5069169;28;20463;-75
2023/06/05 07:13:23;;;;;;;3.75;1.85;;;14.50;99.90;;;;;;5065670;28;20441;-76
2023/06/05 07:15:49;;;;;;;4.25;2.70;;;14.10;99.90;;;;;;5069078;28;20422;-76
2023/06/05 07:18:17;;;;;;;4.10;2.50;;;14.00;99.90;;;;;;5066649;28;20427;-76
2023/06/05 07:20:42;;;;;;;3.90;2.28;;;14.60;99.90;;;;;;5064398;28;20584;-75
2023/06/05 07:23:08;;;;;;;3.00;2.50;;;15.10;99.90;;;;;;5065741;28;20623;-76
2023/06/05 07:25:34;;;;;;;3.33;2.45;;;14.80;99.90;;;;;;5067413;28;20419;-74
2023/06/05 07:28:00;;;;;;;3.25;2.30;;;14.70;99.90;;;;;;5066693;28;21019;-76
2023/06/05 07:30:28;;;;;;;4.07;2.20;;;14.30;99.90;;;;;;5066315;28;20546;-75
2023/06/05 07:32:55;;;;;;;2.30;1.95;;;14.40;99.90;;;;;;5067620;28;20428;-74
2023/06/05 07:35:21;;;;;;;3.15;2.15;;;15.50;99.90;;;;;;5047580;28;20413;-75
2023/06/05 07:37:47;;;;;;;2.57;2.37;;;15.40;99.90;;;;;;5058763;28;20438;-74
2023/06/05 07:40:13;;;;;;;4.23;2.10;;;16.60;99.90;;;;;;5067555;28;20415;-75
2023/06/05 07:42:38;;;;;;;2.30;2.03;;;17.00;99.90;;;;;;5063924;28;20431;-75
2023/06/05 07:45:05;;;;;;;4.40;2.70;;;17.10;99.90;;;;;;5055579;28;20428;-74
2023/06/05 07:47:30;;;;;;;4.00;2.55;;;16.30;99.90;;;;;;5054380;28;20437;-76
2023/06/05 07:50:00;;;;;;;4.47;2.40;;;15.60;99.90;;;;;;5061830;28;20472;-75
2023/06/05 07:52:33;;;;;;;4.23;2.77;;;15.40;99.90;;;;;;5065003;28;21014;-75
2023/06/05 07:54:59;;;;;;;3.78;2.97;;;15.90;99.90;;;;;;5062923;28;20465;-75
2023/06/05 07:57:24;;;;;;;3.20;2.40;;;15.30;99.90;;;;;;5066372;28;20431;-75
2023/06/05 07:59:50;;;;;;;3.47;2.40;;;15.40;99.90;;;;;;5067093;28;20427;-75
2023/06/05 08:02:19;;;;;;;4.22;2.85;;;15.40;99.90;;;;;;5065186;28;20441;-76
2023/06/05 08:04:45;;;;;;;3.83;2.73;;;15.10;99.90;;;;;;5054971;28;20469;-75
2023/06/05 08:07:11;;;;;;;4.07;2.80;;;15.10;99.90;;;;;;5067430;28;20528;-74
2023/06/05 08:09:37;;;;;;;4.88;2.60;;;15.70;99.90;;;;;;5063752;28;20450;-75
2023/06/05 08:12:04;;;;;;;4.13;3.10;;;15.60;99.90;;;;;;5067169;28;20422;-74
2023/06/05 08:14:30;;;;;;;5.72;2.70;;;15.80;99.90;;;;;;5065154;28;20463;-73
2023/06/05 08:16:55;;;;;;;3.63;3.08;;;16.20;99.90;;;;;;5062369;28;20494;-74
2023/06/05 08:19:21;;;;;;;4.00;3.00;;;16.00;99.90;;;;;;5040522;28;20851;-75
2023/06/05 08:21:52;;;;;;;4.93;3.10;;;15.70;99.90;;;;;;5065852;28;20700;-75
2023/06/05 08:24:17;;;;;;;4.13;2.92;;;15.10;99.90;;;;;;5056590;28;20403;-76
2023/06/05 08:26:43;;;;;;;4.68;3.20;;;15.70;99.90;;;;;;5068408;28;20901;-77
2023/06/05 08:29:09;;;;;;;4.28;2.85;;;15.40;99.90;;;;;;5065960;28;20469;-75
2023/06/05 08:31:36;;;;;;;6.07;2.80;;;16.10;99.90;;;;;;5067377;28;20420;-75
2023/06/05 08:34:02;;;;;;;5.70;3.60;;;15.40;99.90;;;;;;5065843;28;20412;-76
2023/06/05 08:36:28;;;;;;;3.90;2.88;;;15.50;99.90;;;;;;5067593;28;20450;-76
2023/06/05 08:38:54;;;;;;;3.90;3.30;;;15.90;99.90;;;;;;5066888;28;20498;-75
2023/06/05 08:41:20;;;;;;;5.03;2.85;;;16.10;99.90;;;;;;5065429;28;20507;-75
2023/06/05 08:43:47;;;;;;;4.03;2.80;;;15.80;99.90;;;;;;5066655;28;20449;-75
2023/06/05 08:46:14;;;;;;;3.67;2.80;;;16.50;99.90;;;;;;5066542;28;20427;-74
2023/06/05 08:48:44;;;;;;;3.38;3.08;;;16.70;99.90;;;;;;5061374;28;20421;-75
2023/06/05 08:51:12;;;;;;;6.55;3.03;;;16.00;99.90;;;;;;5057929;28;20420;-74
2023/06/05 08:53:39;;;;;;;4.05;3.15;;;15.80;99.90;;;;;;5066746;28;21031;-76
2023/06/05 08:56:06;;;;;;;3.72;2.58;;;16.00;99.90;;;;;;5061592;28;20511;-75
2023/06/05 08:58:32;;;;;;;6.10;3.90;;;16.40;99.90;;;;;;5047769;28;20432;-75
2023/06/05 09:00:59;;;;;;;4.90;3.03;;;16.30;99.90;;;;;;5065401;28;20419;-75
2023/06/05 09:03:25;;;;;;;4.13;2.58;;;16.80;99.90;;;;;;5064456;28;20431;-76
2023/06/05 09:05:53;;;;;;;3.35;2.70;;;16.00;99.90;;;;;;5065959;28;20422;-76
2023/06/05 09:08:30;;;;;;;4.30;2.92;;;16.30;99.90;;;;;;5061687;28;20782;-76
2023/06/05 09:11:19;;;;;;;3.88;3.13;;;16.80;99.90;;;;;;5065771;28;20422;-75
2023/06/05 09:13:46;;;;;;;4.75;2.80;;;17.10;99.90;;;;;;5063321;28;20435;-76
2023/06/05 09:16:12;;;;;;;3.15;2.70;;;17.00;99.90;;;;;;5065497;28;20926;-75
2023/06/05 09:18:53;;;;;;;3.45;2.50;;;17.20;99.90;;;;;;5063754;28;20423;-75
2023/06/05 09:21:18;;;;;;;6.07;3.30;;;17.20;99.90;;;;;;5059267;28;22186;-75
2023/06/05 09:23:44;;;;;;;4.90;2.35;;;17.20;99.90;;;;;;5062386;28;20499;-76
2023/06/05 09:26:13;;;;;;;3.58;2.67;;;17.30;99.90;;;;;;5058651;28;20853;-75
2023/06/05 09:28:58;;;;;;;4.10;2.85;;;16.80;99.90;;;;;;5066364;28;20416;-75
2023/06/05 09:31:23;;;;;;;7.63;2.90;;;16.40;99.90;;;;;;5064783;28;20419;-75
2023/06/05 09:33:56;;;;;;;3.63;2.40;;;16.60;99.90;;;;;;5063417;28;20455;-76
2023/06/05 09:36:23;;;;;;;4.80;2.63;;;16.90;99.90;;;;;;5063837;28;20423;-76
2023/06/05 09:38:50;;;;;;;3.65;2.85;;;16.60;99.90;;;;;;5065259;28;20432;-77
2023/06/05 09:41:18;;;;;;;5.10;2.90;;;17.10;99.90;;;;;;5065303;28;20578;-74
2023/06/05 09:43:45;;;;;;;12.82;4.80;;;17.10;99.90;;;;;;5055136;28;20433;-74
2023/06/05 09:46:14;;;;;;;13.38;4.60;;;17.30;99.90;;;;;;5063292;28;20433;-74
2023/06/05 09:48:41;;;;;;;2.77;2.57;;;17.50;99.90;;;;;;5066975;28;20411;-74
2023/06/05 09:51:11;;;;;;;3.83;2.75;;;17.50;99.90;;;;;;5068637;28;20419;-75
2023/06/05 09:53:48;;;;;;;4.47;2.70;;;17.40;99.90;;;;;;5068094;28;20616;-75
2023/06/05 09:56:19;;;;;;;5.38;2.78;;;17.40;99.90;;;;;;5061349;28;20427;-75
2023/06/05 09:58:50;;;;;;;3.63;2.83;;;17.50;99.90;;;;;;5061525;28;20472;-74
2023/06/05 10:01:36;;;;;;;3.35;2.63;;;17.50;99.90;;;;;;5066473;28;20428;-75
2023/06/05 10:04:08;;;;;;;4.75;3.10;;;17.00;99.90;;;;;;5059943;28;20430;-74
2023/06/05 10:06:35;;;;;;;5.05;3.25;;;17.40;99.90;;;;;;5067512;28;20932;-76
2023/06/05 10:09:01;;;;;;;3.90;2.90;;;17.60;99.90;;;;;;5068365;28;20774;-74
2023/06/05 10:11:27;;;;;;;5.13;3.33;;;17.60;99.90;;;;;;5065764;28;20423;-74
2023/06/05 10:13:54;;;;;;;4.53;3.72;;;17.70;99.90;;;;;;5068326;28;20426;-74
2023/06/05 10:16:20;;;;;;;5.28;3.42;;;17.60;99.90;;;;;;5063240;28;20533;-75
2023/06/05 10:18:47;;;;;;;3.22;2.88;;;17.50;99.90;;;;;;5061171;28;21039;-74
2023/06/05 10:21:17;;;;;;;2.90;2.60;;;17.50;99.90;;;;;;5067566;28;20555;-75
2023/06/05 10:23:53;;;;;;;3.22;2.83;;;17.10;99.90;;;;;;5062646;28;20444;-74
2023/06/05 10:26:42;;;;;;;3.20;2.72;;;17.50;99.90;;;;;;5063827;28;20412;-74
2023/06/05 10:29:22;;;;;;;4.60;2.73;;;17.80;99.90;;;;;;5061222;28;20446;-75
2023/06/05 10:31:58;;;;;;;3.55;2.90;;;17.90;99.90;;;;;;5065723;28;20432;-75
2023/06/05 10:35:00;;;;;;;4.23;2.90;;;18.00;99.90;;;;;;5065922;28;20529;-75
2023/06/05 10:37:39;;;;;;;3.08;2.85;;;17.20;99.90;;;;;;5067282;28;20459;-75
2023/06/05 10:40:05;;;;;;;3.95;2.90;;;18.00;99.90;;;;;;5066246;28;20423;-75
2023/06/05 10:42:31;;;;;;;3.80;3.10;;;17.90;99.90;;;;;;5068359;28;20411;-74
2023/06/05 10:44:57;;;;;;;3.70;2.63;;;17.70;99.90;;;;;;5065504;28;20465;-75
2023/06/05 10:47:31;;;;;;;3.90;2.83;;;17.90;99.90;;;;;;5068628;28;20403;-75
2023/06/05 10:50:16;;;;;;;4.60;3.17;;;18.10;99.90;;;;;;5063497;28;20913;-77
2023/06/05 10:52:42;;;;;;;3.50;2.47;;;18.00;99.90;;;;;;5061972;28;20498;-75
2023/06/05 10:55:09;;;;;;;4.45;2.70;;;17.40;99.90;;;;;;5064283;28;20429;-75
2023/06/05 10:58:09;;;;;;;3.15;2.50;;;17.60;99.90;;;;;;5067036;28;20763;-75
2023/06/05 11:00:38;;;;;;;3.55;2.63;;;18.10;99.90;;;;;;5053952;28;20415;-76
2023/06/05 11:03:06;;;;;;;3.30;3.00;;;17.80;99.90;;;;;;5066781;28;20953;-75
2023/06/05 11:05:32;;;;;;;2.77;2.43;;;17.60;99.90;;;;;;5065296;28;20997;-76
2023/06/05 11:08:18;;;;;;;3.97;2.50;;;17.80;99.90;;;;;;5067384;28;20498;-75
2023/06/05 11:11:04;;;;;;;3.78;2.60;;;17.40;99.90;;;;;;5056077;28;20417;-75
2023/06/05 11:13:55;;;;;;;2.40;2.20;;;18.00;99.90;;;;;;5067158;28;20423;-76
2023/06/05 11:16:28;;;;;;;3.72;2.58;;;17.90;99.90;;;;;;5067143;28;20441;-75
2023/06/05 11:19:14;;;;;;;2.65;2.10;;;18.30;99.90;;;;;;5065232;28;20964;-74
2023/06/05 11:22:02;;;;;;;2.97;2.38;;;17.90;99.90;;;;;;5066194;28;20403;-74
2023/06/05 11:24:28;;;;;;;2.63;2.42;;;18.10;99.90;;;;;;5066912;28;21172;-74
2023/06/05 11:26:54;;;;;;;5.13;2.63;;;18.40;99.90;;;;;;5066783;28;20551;-75
2023/06/05 11:29:22;;;;;;;2.83;2.33;;;17.90;99.90;;;;;;5065486;28;20432;-75
2023/06/05 11:31:48;;;;;;;3.60;2.50;;;18.20;99.90;;;;;;5066452;28;20420;-73
2023/06/05 11:34:14;;;;;;;3.10;2.47;;;18.10;99.90;;;;;;5065300;28;20428;-74
2023/06/05 11:36:40;;;;;;;6.05;2.90;;;18.00;99.90;;;;;;5058423;28;20432;-74
2023/06/05 11:39:07;;;;;;;2.92;2.20;;;18.30;99.90;;;;;;5057652;28;20416;-73
2023/06/05 11:41:33;;;;;;;2.67;2.47;;;18.60;99.90;;;;;;5062700;28;20427;-74
2023/06/05 11:43:59;;;;;;;3.30;2.60;;;18.50;99.90;;;;;;5067047;28;20442;-75
2023/06/05 11:46:43;;;;;;;3.43;2.03;;;18.60;99.90;;;;;;5066357;28;20415;-74
2023/06/05 11:49:25;;;;;;;2.30;2.10;;;18.60;99.90;;;;;;5066261;28;20424;-74
2023/06/05 11:51:51;;;;;;;3.00;2.15;;;18.50;99.90;;;;;;5066106;28;20415;-74
2023/06/05 11:54:33;;;;;;;3.43;2.10;;;18.50;99.90;;;;;;5066704;28;20454;-75
2023/06/05 11:57:10;;;;;;;3.38;2.47;;;18.90;99.90;;;;;;5064194;28;20431;-74
2023/06/05 11:59:37;;;;;;;4.15;2.17;;;18.90;99.90;;;;;;5067072;28;20419;-75
2023/06/05 12:02:03;;;;;;;4.18;2.53;;;18.00;99.90;;;;;;5064105;28;20419;-74
2023/06/05 12:04:33;;;;;;;5.32;2.40;;;18.70;99.90;;;;;;5064452;28;20427;-74
2023/06/05 12:07:02;;;;;;;2.35;2.15;;;18.80;99.90;;;;;;5065902;28;20434;-75
2023/06/05 12:09:27;;;;;;;2.78;2.15;;;18.40;99.90;;;;;;5065776;28;20428;-75
2023/06/05 12:12:06;;;;;;;1.63;1.53;;;18.50;99.90;;;;;;5065767;28;20453;-75
2023/06/05 12:14:33;;;;;;;2.20;2.00;;;18.50;99.90;;;;;;5064773;28;20430;-75
2023/06/05 12:16:59;;;;;;;3.05;2.22;;;18.30;99.90;;;;;;5066674;28;20419;-73
2023/06/05 12:19:25;;;;;;;6.15;2.50;;;18.80;99.90;;;;;;5064583;28;20427;-75
2023/06/05 12:22:01;;;;;;;5.18;2.20;;;18.90;99.90;;;;;;5061336;28;20505;-75
2023/06/05 12:24:27;;;;;;;2.50;2.30;;;18.40;99.90;;;;;;5055322;28;21115;-74
2023/06/05 12:26:58;;;;;;;4.47;2.92;;;18.40;99.90;;;;;;5065955;28;20411;-75
2023/06/05 12:29:29;;;;;;;4.80;2.47;;;18.50;99.90;;;;;;5066110;28;20408;-74
2023/06/05 12:32:00;;;;;;;2.70;2.15;;;19.00;99.90;;;;;;5064639;28;20411;-75
2023/06/05 12:34:40;;;;;;;2.90;2.30;;;18.90;99.90;;;;;;5065504;28;20444;-75
2023/06/05 12:37:08;;;;;;;2.97;2.25;;;19.40;99.90;;;;;;5064538;28;20868;-74
2023/06/05 12:39:34;;;;;;;3.47;2.05;;;18.90;99.90;;;;;;5064010;28;20420;-75
2023/06/05 12:42:00;;;;;;;3.22;1.75;;;18.60;99.90;;;;;;5064510;28;20430;-75
2023/06/05 12:44:26;;;;;;;3.53;2.60;;;19.00;99.90;;;;;;5057434;28;20424;-74
2023/06/05 12:46:51;;;;;;;4.03;2.30;;;19.20;99.90;;;;;;5049949;28;20469;-74
2023/06/05 12:49:17;;;;;;;6.67;3.60;;;19.00;99.90;;;;;;5063452;28;20511;-76
2023/06/05 12:51:43;;;;;;;3.78;2.15;;;18.30;99.90;;;;;;5063936;28;20932;-76